createdAt,value
2018-12-30T00:01:18.243Z,99.21
2018-12-30T00:03:48.785Z,99.21
2018-12-30T00:06:19.759Z,98.80
2018-12-30T00:08:50.494Z,98.68
2018-12-30T00:11:21.049Z,98.72
2018-12-30T00:13:51.584Z,98.74
2018-12-30T00:16:22.216Z,98.45
2018-12-30T00:18:52.771Z,97.28
2018-12-30T00:21:23.326Z,96.30
2018-12-30T00:23:53.950Z,96.37
2018-12-30T00:26:24.540Z,96.30
2018-12-30T00:28:55.136Z,96.38
2018-12-30T00:31:25.820Z,96.58
2018-12-30T00:33:56.429Z,96.90
2018-12-30T00:36:26.993Z,96.70
2018-12-30T00:38:57.619Z,96.72
2018-12-30T00:41:28.179Z,97.18
2018-12-30T00:43:58.785Z,97.23
2018-12-30T00:46:29.352Z,97.20
2018-12-30T00:49:00.023Z,97.46
2018-12-30T00:51:30.633Z,97.22
2018-12-30T00:54:01.482Z,97.09
2018-12-30T00:56:32.287Z,96.87
2018-12-30T00:59:02.922Z,96.33
2018-12-30T01:01:33.510Z,96.65
2018-12-30T01:04:04.149Z,96.48
2018-12-30T01:06:35.134Z,95.12
2018-12-30T01:09:07.781Z,95.27
2018-12-30T01:11:38.306Z,94.89
2018-12-30T01:14:08.903Z,94.43
2018-12-30T01:16:39.605Z,94.32
2018-12-30T01:19:10.266Z,94.00
2018-12-30T01:21:40.953Z,94.68
2018-12-30T01:24:11.578Z,94.78
2018-12-30T01:26:42.160Z,94.51
2018-12-30T01:29:12.958Z,94.98
2018-12-30T01:31:43.951Z,94.39
2018-12-30T01:34:14.555Z,93.08
2018-12-30T01:36:45.107Z,92.95
2018-12-30T01:39:15.786Z,93.00
2018-12-30T01:41:46.828Z,91.60
2018-12-30T01:44:17.398Z,91.91
2018-12-30T01:46:48.077Z,91.22
2018-12-30T01:49:18.683Z,91.32
2018-12-30T01:51:49.282Z,90.59
2018-12-30T01:54:19.974Z,91.35
2018-12-30T01:56:50.524Z,90.19
2018-12-30T01:59:21.203Z,90.31
2018-12-30T02:01:51.969Z,89.86
2018-12-30T02:04:22.593Z,90.28
2018-12-30T02:06:53.171Z,90.38
2018-12-30T02:09:23.933Z,89.70
2018-12-30T02:11:54.511Z,90.25
2018-12-30T02:14:25.090Z,90.09
2018-12-30T02:16:56.178Z,90.90
2018-12-30T02:19:26.818Z,90.32
2018-12-30T02:21:57.412Z,90.76
2018-12-30T02:24:28.039Z,90.61
2018-12-30T02:26:58.544Z,90.09
2018-12-30T02:29:29.092Z,89.91
2018-12-30T02:31:59.709Z,89.47
2018-12-30T02:34:30.265Z,88.79
2018-12-30T02:37:00.802Z,89.11
2018-12-30T02:39:32.086Z,88.56
2018-12-30T02:42:02.688Z,88.00
2018-12-30T02:44:33.276Z,87.31
2018-12-30T02:47:04.008Z,87.70
2018-12-30T02:49:34.865Z,87.79
2018-12-30T02:52:05.455Z,87.42
2018-12-30T02:54:36.113Z,87.27
2018-12-30T02:57:06.617Z,87.23
2018-12-30T02:59:37.199Z,87.02
2018-12-30T03:02:07.822Z,86.80
2018-12-30T03:04:38.424Z,87.02
2018-12-30T03:07:08.965Z,87.07
2018-12-30T03:09:39.602Z,87.15
2018-12-30T03:12:10.165Z,87.14
2018-12-30T03:14:40.694Z,87.00
2018-12-30T03:17:11.363Z,86.28
2018-12-30T03:19:41.881Z,86.12
2018-12-30T03:22:12.784Z,86.70
2018-12-30T03:24:43.444Z,86.67
2018-12-30T03:27:14.006Z,86.16
2018-12-30T03:29:44.568Z,86.39
2018-12-30T03:32:15.222Z,86.28
2018-12-30T03:34:45.784Z,86.20
2018-12-30T03:37:16.343Z,86.25
2018-12-30T03:39:46.978Z,85.85
2018-12-30T03:42:17.575Z,86.26
2018-12-30T03:44:48.169Z,85.74
2018-12-30T03:47:18.812Z,85.71
2018-12-30T03:49:49.366Z,85.71
2018-12-30T03:52:20.014Z,85.68
2018-12-30T03:54:50.603Z,86.08
2018-12-30T03:57:21.196Z,86.67
2018-12-30T03:59:51.871Z,86.64
2018-12-30T04:02:22.418Z,86.16
2018-12-30T04:04:53.032Z,85.80
2018-12-30T04:07:23.669Z,85.89
2018-12-30T04:09:54.225Z,85.69
2018-12-30T04:12:24.899Z,85.89
2018-12-30T04:14:55.561Z,85.93
2018-12-30T04:17:26.125Z,85.89
2018-12-30T04:19:56.727Z,86.06
2018-12-30T04:22:27.322Z,86.44
2018-12-30T04:24:57.916Z,86.49
2018-12-30T04:27:28.443Z,86.54
2018-12-30T04:29:59.171Z,86.90
2018-12-30T04:32:29.649Z,86.68
2018-12-30T04:35:00.185Z,86.93
2018-12-30T04:37:30.802Z,86.25
2018-12-30T04:40:01.303Z,86.16
2018-12-30T04:42:31.815Z,85.93
2018-12-30T04:45:02.418Z,85.43
2018-12-30T04:47:33.008Z,85.47
2018-12-30T04:50:03.540Z,84.67
2018-12-30T04:52:34.135Z,85.31
2018-12-30T04:55:04.658Z,84.84
2018-12-30T04:57:35.189Z,84.80
2018-12-30T05:00:06.023Z,84.28
2018-12-30T05:02:36.513Z,84.44
2018-12-30T05:05:07.133Z,84.72
2018-12-30T05:07:37.775Z,84.02
2018-12-30T05:10:08.311Z,84.15
2018-12-30T05:12:38.852Z,83.43
2018-12-30T05:15:09.502Z,84.17
2018-12-30T05:17:40.097Z,84.25
2018-12-30T05:20:10.581Z,84.36
2018-12-30T05:22:41.164Z,83.64
2018-12-30T05:25:11.715Z,83.96
2018-12-30T05:27:42.287Z,84.25
2018-12-30T05:30:12.851Z,84.06
2018-12-30T05:32:43.383Z,83.72
2018-12-30T05:35:13.932Z,83.72
2018-12-30T05:37:44.541Z,84.04
2018-12-30T05:40:15.125Z,84.04
2018-12-30T05:42:45.668Z,84.33
2018-12-30T05:45:16.231Z,84.24
2018-12-30T05:47:46.772Z,84.10
2018-12-30T05:50:17.328Z,84.26
2018-12-30T05:52:47.943Z,84.51
2018-12-30T05:55:18.500Z,84.67
2018-12-30T05:57:49.041Z,84.43
2018-12-30T06:00:19.651Z,84.66
2018-12-30T06:02:50.143Z,84.61
2018-12-30T06:05:20.674Z,84.56
2018-12-30T06:07:51.260Z,84.15
2018-12-30T06:10:21.813Z,84.33
2018-12-30T06:12:52.352Z,83.54
2018-12-30T06:15:24.600Z,84.41
2018-12-30T06:17:55.274Z,84.41
2018-12-30T06:20:25.804Z,84.60
2018-12-30T06:22:56.336Z,84.32
2018-12-30T06:25:26.913Z,84.64
2018-12-30T06:27:57.426Z,85.01
2018-12-30T06:30:28.068Z,85.26
2018-12-30T06:32:59.209Z,83.67
2018-12-30T06:35:30.340Z,83.74
2018-12-30T06:38:00.901Z,84.37
2018-12-30T06:40:31.391Z,84.10
2018-12-30T06:43:01.861Z,84.16
2018-12-30T06:45:32.388Z,84.44
2018-12-30T06:48:02.846Z,84.38
2018-12-30T06:50:33.336Z,84.31
2018-12-30T06:53:03.837Z,84.46
2018-12-30T06:55:34.312Z,83.62
2018-12-30T06:58:04.799Z,83.62
2018-12-30T07:00:35.617Z,83.31
2018-12-30T07:03:06.104Z,83.20
2018-12-30T07:05:36.591Z,83.37
2018-12-30T07:08:07.140Z,84.23
2018-12-30T07:10:37.637Z,85.83
2018-12-30T07:13:08.130Z,86.92
2018-12-30T07:15:38.691Z,87.69
2018-12-30T07:18:09.073Z,87.77
2018-12-30T07:20:39.547Z,87.51
2018-12-30T07:23:10.157Z,87.56
2018-12-30T07:25:40.637Z,87.75
2018-12-30T07:28:11.146Z,87.78
2018-12-30T07:30:41.681Z,87.35
2018-12-30T07:33:12.166Z,87.74
2018-12-30T07:35:42.647Z,87.36
2018-12-30T07:38:13.194Z,87.46
2018-12-30T07:40:43.724Z,87.25
2018-12-30T07:43:14.231Z,87.45
2018-12-30T07:45:44.766Z,86.44
2018-12-30T07:48:15.256Z,86.85
2018-12-30T07:50:45.739Z,86.74
2018-12-30T07:53:16.332Z,86.30
2018-12-30T07:55:46.845Z,86.00
2018-12-30T07:58:17.323Z,85.72
2018-12-30T08:00:47.864Z,85.25
2018-12-30T08:03:18.338Z,85.77
2018-12-30T08:05:48.833Z,85.32
2018-12-30T08:08:19.363Z,85.38
2018-12-30T08:10:49.871Z,85.54
2018-12-30T08:13:20.313Z,85.30
2018-12-30T08:15:50.912Z,85.58
2018-12-30T08:18:21.389Z,86.17
2018-12-30T08:20:51.810Z,85.96
2018-12-30T08:23:23.764Z,85.60
2018-12-30T08:25:54.238Z,86.24
2018-12-30T08:28:25.102Z,85.89
2018-12-30T08:30:55.915Z,85.51
2018-12-30T08:33:26.399Z,85.55
2018-12-30T08:35:56.866Z,85.56
2018-12-30T08:38:27.508Z,85.25
2018-12-30T08:40:57.969Z,85.23
2018-12-30T08:43:28.403Z,85.27
2018-12-30T08:45:58.943Z,85.42
2018-12-30T08:48:29.415Z,85.48
2018-12-30T08:50:59.937Z,85.69
2018-12-30T08:53:30.494Z,85.84
2018-12-30T08:56:00.987Z,85.79
2018-12-30T08:58:31.471Z,86.15
2018-12-30T09:01:02.041Z,86.37
2018-12-30T09:03:32.521Z,86.31
2018-12-30T09:06:03.032Z,86.69
2018-12-30T09:08:33.639Z,86.71
2018-12-30T09:11:04.073Z,86.91
2018-12-30T09:13:34.545Z,87.61
2018-12-30T09:16:05.118Z,88.01
2018-12-30T09:18:35.588Z,87.93
2018-12-30T09:21:06.046Z,88.24
2018-12-30T09:23:37.465Z,87.98
2018-12-30T09:26:08.283Z,88.13
2018-12-30T09:28:38.789Z,88.12
2018-12-30T09:31:09.346Z,87.87
2018-12-30T09:33:39.962Z,87.74
2018-12-30T09:36:10.460Z,87.42
2018-12-30T09:38:41.014Z,87.18
2018-12-30T09:41:11.467Z,87.18
2018-12-30T09:43:41.938Z,87.39
2018-12-30T09:46:12.546Z,87.11
2018-12-30T09:48:43.027Z,86.39
2018-12-30T09:51:13.499Z,85.70
2018-12-30T09:53:45.218Z,85.62
2018-12-30T09:56:15.897Z,85.24
2018-12-30T09:58:46.410Z,85.35
2018-12-30T10:01:16.917Z,85.15
2018-12-30T10:03:47.440Z,84.83
2018-12-30T10:06:17.926Z,85.25
2018-12-30T10:08:48.482Z,85.44
2018-12-30T10:11:18.945Z,85.44
2018-12-30T10:13:49.362Z,85.49
2018-12-30T10:16:19.932Z,85.25
2018-12-30T10:18:51.692Z,85.80
2018-12-30T10:21:22.258Z,85.49
2018-12-30T10:23:53.269Z,85.26
2018-12-30T10:26:23.736Z,84.81
2018-12-30T10:28:54.203Z,84.21
2018-12-30T10:31:24.822Z,85.06
2018-12-30T10:33:55.284Z,85.08
2018-12-30T10:36:25.785Z,84.60
2018-12-30T10:38:56.256Z,84.71
2018-12-30T10:41:26.756Z,84.34
2018-12-30T10:43:57.072Z,84.66
2018-12-30T10:46:27.629Z,84.81
2018-12-30T10:48:58.096Z,84.41
2018-12-30T10:51:28.558Z,84.64
2018-12-30T10:54:00.759Z,84.78
2018-12-30T10:56:31.352Z,84.26
2018-12-30T10:59:01.812Z,84.72
2018-12-30T11:01:32.385Z,84.76
2018-12-30T11:04:02.858Z,84.04
2018-12-30T11:06:33.282Z,84.00
2018-12-30T11:09:05.817Z,83.62
2018-12-30T11:11:36.313Z,83.78
2018-12-30T11:14:06.844Z,83.64
2018-12-30T11:16:37.386Z,83.40
2018-12-30T11:19:07.898Z,82.57
2018-12-30T11:21:38.400Z,82.56
2018-12-30T11:24:09.024Z,82.76
2018-12-30T11:26:39.554Z,82.10
2018-12-30T11:29:10.048Z,82.15
2018-12-30T11:31:40.580Z,81.40
2018-12-30T11:34:11.153Z,81.90
2018-12-30T11:36:41.696Z,81.18
2018-12-30T11:39:12.336Z,81.90
2018-12-30T11:41:42.830Z,80.70
2018-12-30T11:44:13.325Z,81.22
2018-12-30T11:46:43.892Z,80.69
2018-12-30T11:49:14.396Z,80.38
2018-12-30T11:51:44.879Z,80.81
2018-12-30T11:54:16.536Z,79.96
2018-12-30T11:56:47.303Z,80.46
2018-12-30T11:59:17.863Z,80.33
2018-12-30T12:01:48.385Z,80.20
2018-12-30T12:04:18.923Z,80.54
2018-12-30T12:06:49.485Z,80.15
2018-12-30T12:09:20.002Z,79.52
2018-12-30T12:11:50.524Z,79.46
2018-12-30T12:14:21.009Z,79.13
2018-12-30T12:16:51.527Z,80.43
2018-12-30T12:19:22.089Z,80.14
2018-12-30T12:21:52.588Z,80.08
2018-12-30T12:24:24.444Z,80.53
2018-12-30T12:26:55.144Z,80.21
2018-12-30T12:29:25.738Z,80.46
2018-12-30T12:31:56.219Z,80.73
2018-12-30T12:34:26.754Z,80.31
2018-12-30T18:37:32.608Z,94.92
2018-12-30T18:40:03.103Z,94.96
2018-12-30T18:42:33.659Z,94.85
2018-12-30T18:45:04.278Z,94.67
2018-12-30T18:47:34.838Z,94.73
2018-12-30T18:50:05.633Z,94.62
2018-12-30T18:52:36.160Z,94.86
2018-12-30T18:55:07.096Z,94.99
2018-12-30T18:57:37.652Z,94.97
2018-12-30T19:00:10.611Z,94.94
2018-12-30T19:02:41.102Z,95.11
2018-12-30T19:05:11.734Z,95.34
2018-12-30T19:07:42.294Z,95.35
2018-12-30T19:10:12.824Z,95.30
2018-12-30T19:12:43.311Z,95.32
2018-12-30T19:15:13.882Z,95.39
2018-12-30T19:17:44.364Z,95.37
2018-12-30T19:20:14.835Z,95.68
2018-12-30T19:22:45.407Z,95.76
2018-12-30T19:25:15.892Z,95.75
2018-12-30T19:27:47.232Z,95.78
2018-12-30T19:30:17.719Z,95.85
2018-12-30T19:32:48.151Z,95.91
2018-12-30T19:35:18.927Z,96.07
2018-12-30T19:37:49.675Z,96.04
2018-12-30T19:40:20.177Z,96.44
2018-12-30T19:42:50.690Z,96.44
2018-12-30T19:45:21.201Z,96.50
2018-12-30T19:47:51.721Z,96.52
2018-12-30T19:50:22.216Z,96.70
2018-12-30T19:52:52.772Z,96.69
2018-12-30T19:55:23.314Z,96.70
2018-12-30T19:57:53.835Z,96.74
2018-12-30T20:00:24.430Z,96.85
2018-12-30T20:02:54.925Z,96.82
2018-12-30T20:05:25.399Z,97.09
2018-12-30T20:07:55.956Z,97.12
2018-12-30T20:10:26.543Z,97.00
2018-12-30T20:12:57.826Z,96.98
2018-12-30T20:15:30.462Z,97.10
2018-12-30T20:18:00.966Z,96.98
2018-12-30T20:20:31.451Z,96.80
2018-12-30T20:23:01.987Z,96.81
2018-12-30T20:25:32.522Z,96.72
2018-12-30T20:28:02.973Z,96.51
2018-12-30T20:30:33.525Z,96.47
2018-12-30T20:33:04.007Z,96.53
2018-12-30T20:35:34.551Z,96.32
2018-12-30T20:38:05.105Z,96.25
2018-12-30T20:40:35.622Z,96.20
2018-12-30T20:43:07.415Z,95.76
2018-12-30T20:45:37.944Z,95.77
2018-12-30T20:48:08.443Z,95.69
2018-12-30T20:50:38.865Z,95.70
2018-12-30T20:53:09.339Z,95.45
2018-12-30T20:55:39.796Z,95.34
2018-12-30T20:58:10.397Z,95.24
2018-12-30T21:00:40.910Z,95.39
2018-12-30T21:03:11.426Z,95.40
2018-12-30T21:05:41.907Z,95.37
2018-12-30T21:08:12.437Z,95.29
2018-12-30T21:10:42.972Z,95.45
2018-12-30T21:13:13.488Z,95.53
2018-12-30T21:15:44.009Z,95.51
2018-12-30T21:18:14.558Z,95.59
2018-12-30T21:20:44.963Z,95.46
2018-12-30T21:23:15.758Z,95.62
2018-12-30T21:25:46.286Z,95.60
2018-12-30T21:28:16.755Z,95.65
2018-12-30T21:30:47.294Z,95.96
2018-12-30T21:33:17.787Z,95.76
2018-12-30T21:35:48.308Z,95.88
2018-12-30T21:38:18.812Z,95.98
2018-12-30T21:40:49.318Z,96.01
2018-12-30T21:43:19.743Z,96.15
2018-12-30T21:45:50.280Z,95.98
2018-12-30T21:48:20.788Z,95.88
2018-12-30T21:50:53.826Z,96.01
2018-12-30T21:53:24.731Z,96.19
2018-12-30T21:55:55.280Z,96.25
2018-12-30T21:58:25.807Z,96.33
2018-12-30T22:00:56.358Z,96.25
2018-12-30T22:03:26.884Z,96.29
2018-12-30T22:05:57.437Z,96.15
2018-12-30T22:08:28.069Z,96.09
2018-12-30T22:10:58.557Z,95.90
2018-12-30T22:13:29.057Z,96.03
2018-12-30T22:15:59.615Z,95.75
2018-12-30T22:18:30.179Z,95.84
2018-12-30T22:21:00.680Z,95.87
2018-12-30T22:23:31.228Z,95.92
2018-12-30T22:26:01.751Z,95.75
2018-12-30T22:28:32.224Z,95.80
2018-12-30T22:31:02.758Z,95.88
2018-12-30T22:33:33.235Z,95.91
2018-12-30T22:36:03.763Z,96.09
2018-12-30T22:38:34.278Z,96.01
2018-12-30T22:41:04.828Z,95.89
2018-12-30T22:43:35.314Z,96.02
2018-12-30T22:46:05.838Z,96.14
2018-12-30T22:48:36.323Z,96.04
2018-12-30T22:51:06.820Z,95.99
2018-12-30T22:53:37.389Z,96.08
2018-12-30T22:56:07.877Z,96.11
2018-12-30T22:58:38.374Z,96.32
2018-12-30T23:01:12.203Z,96.34
2018-12-30T23:03:42.724Z,96.16
2018-12-30T23:06:15.731Z,96.17
2018-12-30T23:08:45.487Z,96.11
2018-12-30T23:11:15.964Z,96.19
2018-12-30T23:13:46.433Z,96.03
2018-12-30T23:16:16.970Z,95.91
2018-12-30T23:18:47.453Z,95.56
2018-12-30T23:21:17.996Z,95.60
2018-12-30T23:23:48.519Z,95.79
2018-12-30T23:26:19.035Z,95.72
2018-12-30T23:28:49.536Z,95.68
2018-12-30T23:31:20.068Z,95.66
2018-12-30T23:33:50.618Z,95.75
2018-12-30T23:36:21.109Z,95.84
2018-12-30T23:38:51.695Z,95.86
2018-12-30T23:41:22.189Z,95.83
2018-12-30T23:43:52.727Z,95.76
2018-12-30T23:46:23.258Z,95.63
2018-12-30T23:48:53.797Z,95.82
2018-12-30T23:51:24.270Z,95.81
2018-12-30T23:53:54.804Z,95.84
2018-12-30T23:56:25.306Z,95.89
2018-12-30T23:58:55.767Z,95.98
